Airfield :
LOGIN :

Register | Disclaimer

   EN    FR    IT 

 










Legend :    VFR   Marginal VFR   IFR   Intensive IFR   Very Intensive IFR
Visi :
Ceiling :
>= 8 km
>= 3000ft
5 to 8 km
1000 to 3000 ft
1500m to 5 km
500 to 1000 ft
800 to 1500m
200 to 500 ft
< 800m
< 200 ft
Symbols :   Thunderstorms  Fog  Heavy snow  Heavy precipitations  Wind > 20 kt
SIGMETs :     Misc.  Thunderstorms  Icing  Turbulence  Mountain Waves  Volcanic Ashes







- Airport Elevation : 3 ft
- IATA code : LWR


EHLW - Leuuwarden Air Base

CURRENT METAR :
  • 262047Z AUTO 24010KT 9999 FEW016CB BKN076 OVC082 08/04 Q1014 BLU

EXPIRED METARs :
  • 262031Z AUTO 23012KT 9999 FEW011 FEW015CB SCT047 BKN058 08/04 Q1014 BLU
  • 262025Z AUTO 24018KT 210V270 8000 -SHRA FEW015CB SCT032 BKN038 08/05 Q1014 RERA BLU
  • 262017Z AUTO 24015KT 210V270 7000 SHRA FEW015CB SCT036 BKN042 08/05 Q1014 WHT
  • 262012Z AUTO 24011G22KT 200V270 9999 RA FEW015CB SCT025 OVC043 09/06 Q1014 BLU
  • 261959Z AUTO 23009KT 9999 FEW015CB SCT053 BKN081 08/06 Q1014 BLU
  • 261955Z AUTO 23008KT 9999 SCT053 BKN084 OVC270 08/06 Q1014 BLU
  • 261925Z AUTO 23010KT 9999 FEW053 09/06 Q1014 BLU
  • 261855Z AUTO 24011KT 9999 FEW069 09/06 Q1014 BLU
  • 261825Z AUTO 24011KT 210V270 9999 NCD 10/06 Q1014 BLU
  • 261755Z AUTO 24015KT 9999 FEW076 11/05 Q1014 BLU

TAF TAF EHLW
Valid from the 26 at 09:00 until the 26 at 21:00 UTC


260814Z 2609/2621 26016G29KT 9999 SCT015 SCT050
BECMG 2613/2615 SCT020 BKN030
BECMG 2617/2619 22012KT SCT030
No reported NOTAMs for that airfield.
1 SIGMET reported for the Amsterdam FIR (EHAA) :
 
Severe turbulence
EHAA SIGMET 1 VALID 261930/262200 EHDB
EHAA AMSTERDAM FIR SEV TURB OBS NE OF LINE N5423 E00247 - N5216 E00701 FL250/320 MOV NE 35KT NC=



MET'MAP, your aeronautical weather chart ! - Copyright ORBIFLY December 2007 - Disclaimer

ORBIFLY MET'MAP TEAM :

Programming & Development : Alexandra Zaïnal
Concept & Development : Baudouin d'Aumeries
Co-Development & Prog : Marc-Olivier Méhu
Technical & hardware support : Manuel Goepfert

Contact : metmap@orbifly.com




SOURCES & CREDITS :

   NOAA